createdAt,value
2023-02-25T00:01:12.537Z,3.0
2023-02-25T00:05:08.560Z,3.0
2023-02-25T00:10:08.164Z,3.2
2023-02-25T00:15:08.297Z,3.2
2023-02-25T00:20:08.355Z,3.2
2023-02-25T00:25:08.411Z,2.7
2023-02-25T00:30:10.179Z,2.4
2023-02-25T00:35:08.228Z,2.4
2023-02-25T00:40:08.341Z,2.5
2023-02-25T00:45:08.385Z,2.4
2023-02-25T00:50:08.438Z,2.4
2023-02-25T00:55:08.484Z,2.4
2023-02-25T01:00:08.515Z,2.5
2023-02-25T01:05:08.585Z,2.5
2023-02-25T01:10:08.755Z,2.5
2023-02-25T01:15:08.885Z,2.4
2023-02-25T01:20:08.941Z,2.4
2023-02-25T01:25:08.003Z,2.4
2023-02-25T01:30:08.043Z,2.4
2023-02-25T01:35:08.097Z,2.2
2023-02-25T01:40:08.155Z,2.2
2023-02-25T01:45:08.205Z,2.4
2023-02-25T01:50:08.311Z,2.4
2023-02-25T01:55:08.384Z,2.2
2023-02-25T02:00:08.483Z,2.2
2023-02-25T02:05:08.537Z,2.4
2023-02-25T02:10:08.602Z,2.2
2023-02-25T02:15:08.622Z,2.2
2023-02-25T02:20:14.324Z,2.2
2023-02-25T02:25:18.392Z,2.4
2023-02-25T02:30:08.436Z,2.4
2023-02-25T02:35:08.485Z,2.2
2023-02-25T02:40:08.579Z,2.2
2023-02-25T02:45:12.172Z,2.4
2023-02-25T02:50:08.247Z,2.4
2023-02-25T02:55:08.276Z,2.4
2023-02-25T03:00:08.361Z,2.4
2023-02-25T03:05:08.470Z,2.2
2023-02-25T03:10:08.531Z,2.2
2023-02-25T03:15:08.633Z,2.4
2023-02-25T03:20:08.725Z,2.4
2023-02-25T03:25:08.787Z,2.5
2023-02-25T03:30:08.827Z,2.5
2023-02-25T03:35:08.878Z,2.5
2023-02-25T03:40:08.970Z,2.5
2023-02-25T03:45:08.025Z,2.5
2023-02-25T03:50:08.113Z,2.4
2023-02-25T03:55:08.165Z,2.5
2023-02-25T04:00:08.228Z,2.5
2023-02-25T04:05:08.351Z,2.5
2023-02-25T04:10:08.493Z,2.5
2023-02-25T04:15:08.620Z,2.5
2023-02-25T04:20:08.725Z,2.4
2023-02-25T04:25:08.764Z,2.4
2023-02-25T04:30:08.881Z,2.5
2023-02-25T04:35:13.052Z,2.5
2023-02-25T04:40:14.372Z,2.5
2023-02-25T04:45:08.416Z,2.5
2023-02-25T04:50:08.473Z,2.7
2023-02-25T04:55:08.568Z,2.7
2023-02-25T05:00:08.630Z,2.5
2023-02-25T05:05:03.072Z,2.5
2023-02-25T05:10:02.300Z,2.4
2023-02-25T05:15:02.592Z,2.4
2023-02-25T05:20:02.949Z,2.7
2023-02-25T05:25:02.161Z,2.7
2023-02-25T05:30:02.536Z,2.9
2023-02-25T05:35:02.778Z,2.9
2023-02-25T05:40:03.167Z,2.7
2023-02-25T05:45:02.282Z,2.7
2023-02-25T05:50:02.505Z,2.9
2023-02-25T05:55:02.665Z,2.9
2023-02-25T06:00:02.932Z,3.0
2023-02-25T06:05:02.219Z,3.0
2023-02-25T06:10:02.494Z,3.0
2023-02-25T06:15:02.686Z,3.2
2023-02-25T06:20:03.034Z,3.2
2023-02-25T06:25:02.231Z,3.2
2023-02-25T06:30:02.383Z,3.2
2023-02-25T06:35:02.652Z,3.2
2023-02-25T06:40:02.913Z,3.2
2023-02-25T06:45:03.064Z,3.2
2023-02-25T06:50:02.834Z,3.2
2023-02-25T06:55:03.101Z,3.2
2023-02-25T07:00:02.282Z,3.2
2023-02-25T07:05:02.537Z,3.5
2023-02-25T07:10:02.684Z,3.5
2023-02-25T07:15:02.939Z,3.5
2023-02-25T07:20:02.106Z,3.5
2023-02-25T07:25:02.480Z,3.7
2023-02-25T07:30:02.742Z,3.7
2023-02-25T07:35:03.005Z,3.7
2023-02-25T07:40:02.277Z,3.7
2023-02-25T07:45:02.538Z,3.7
2023-02-25T07:50:02.752Z,3.7
2023-02-25T07:55:03.058Z,4.0
2023-02-25T08:00:02.292Z,4.0
2023-02-25T08:05:02.561Z,4.0
2023-02-25T08:10:02.822Z,4.3
2023-02-25T08:15:03.099Z,4.0
2023-02-25T08:20:02.391Z,3.5
2023-02-25T08:25:02.610Z,3.7
2023-02-25T08:30:02.865Z,4.0
2023-02-25T08:35:03.092Z,4.0
2023-02-25T08:40:02.414Z,4.0
2023-02-25T08:45:02.992Z,4.3
2023-02-25T08:50:02.262Z,4.5
2023-02-25T08:55:02.507Z,4.3
2023-02-25T09:00:04.918Z,4.5
2023-02-25T09:05:03.209Z,4.8
2023-02-25T09:10:02.397Z,5.0
2023-02-25T09:15:02.772Z,4.8
2023-02-25T09:20:03.032Z,4.5
2023-02-25T09:25:02.232Z,4.5
2023-02-25T09:30:02.579Z,4.5
2023-02-25T09:35:02.805Z,4.5
2023-02-25T09:40:03.113Z,4.3
2023-02-25T09:45:02.328Z,4.5
2023-02-25T09:50:02.579Z,5.0
2023-02-25T09:55:02.807Z,5.0
2023-02-25T10:00:03.100Z,5.3
2023-02-25T10:05:02.364Z,5.0
2023-02-25T10:10:02.567Z,6.1
2023-02-25T10:15:02.902Z,7.5
2023-02-25T10:20:03.189Z,7.5
2023-02-25T10:25:02.444Z,6.4
2023-02-25T10:30:02.659Z,6.4
2023-02-25T10:35:02.985Z,6.4
2023-02-25T10:40:04.475Z,6.4
2023-02-25T10:45:02.928Z,8.5
2023-02-25T10:50:03.158Z,8.8
2023-02-25T10:55:02.383Z,8.8
2023-02-25T11:00:02.639Z,7.0
2023-02-25T11:05:02.998Z,7.0
2023-02-25T11:10:12.151Z,7.6
2023-02-25T11:15:02.330Z,7.6
2023-02-25T11:20:02.688Z,6.1
2023-02-25T11:25:02.901Z,5.3
2023-02-25T11:30:03.058Z,4.5
2023-02-25T11:35:02.454Z,4.8
2023-02-25T11:40:02.589Z,4.8
2023-02-25T11:45:02.936Z,5.8
2023-02-25T11:50:02.167Z,6.1
2023-02-25T11:55:02.404Z,8.3
2023-02-25T12:00:02.618Z,9.1
2023-02-25T12:05:02.783Z,7.1
2023-02-25T12:10:03.001Z,6.5
2023-02-25T12:15:02.249Z,6.5
2023-02-25T12:20:02.515Z,7.5
2023-02-25T12:25:11.803Z,7.5
2023-02-25T12:30:03.321Z,5.9
2023-02-25T12:35:02.613Z,6.1
2023-02-25T12:40:03.067Z,8.5
2023-02-25T12:45:02.331Z,8.5
2023-02-25T12:50:02.640Z,9.5
2023-02-25T12:55:03.126Z,9.5
2023-02-25T13:00:02.623Z,6.9
2023-02-25T13:05:12.961Z,6.9
2023-02-25T13:10:02.312Z,8.1
2023-02-25T13:15:02.638Z,8.1
2023-02-25T13:20:02.912Z,8.5
2023-02-25T13:25:03.289Z,8.5
2023-02-25T13:30:04.725Z,8.3
2023-02-25T13:35:03.033Z,8.3
2023-02-25T13:40:02.325Z,8.8
2023-02-25T13:45:02.593Z,8.8
2023-02-25T13:50:02.712Z,8.6
2023-02-25T13:55:03.019Z,8.6
2023-02-25T14:00:02.165Z,8.6
2023-02-25T14:05:02.344Z,8.6
2023-02-25T14:10:02.546Z,8.8
2023-02-25T14:15:02.811Z,8.8
2023-02-25T14:20:02.934Z,8.6
2023-02-25T14:25:02.088Z,8.6
2023-02-25T14:30:02.383Z,8.6
2023-02-25T14:35:02.574Z,8.6
2023-02-25T14:40:02.764Z,9.1
2023-02-25T14:45:02.920Z,9.1
2023-02-25T14:50:03.251Z,8.6
2023-02-25T14:55:02.499Z,8.6
2023-02-25T15:00:02.723Z,8.6
2023-02-25T15:05:03.022Z,8.6
2023-02-25T15:10:02.288Z,8.8
2023-02-25T15:15:02.498Z,8.8
2023-02-25T15:20:02.757Z,7.6
2023-02-25T15:25:03.017Z,7.6
2023-02-25T15:30:02.193Z,9.0
2023-02-25T15:35:02.479Z,9.0
2023-02-25T15:40:02.813Z,7.4
2023-02-25T15:45:03.065Z,7.4
2023-02-25T15:50:02.366Z,7.4
2023-02-25T15:55:02.633Z,7.4
2023-02-25T16:00:03.000Z,7.0
2023-02-25T16:05:09.061Z,7.0
2023-02-25T16:10:02.501Z,7.1
2023-02-25T16:15:02.853Z,7.1
2023-02-25T16:20:03.104Z,5.9
2023-02-25T16:25:02.314Z,5.9
2023-02-25T16:30:02.488Z,4.5
2023-02-25T16:35:02.570Z,4.5
2023-02-25T16:40:02.737Z,4.0
2023-02-25T16:45:02.961Z,4.0
2023-02-25T16:50:02.224Z,3.7
2023-02-25T16:55:08.100Z,3.7
2023-02-25T17:00:12.434Z,3.7
2023-02-25T17:05:02.628Z,3.7
2023-02-25T17:10:02.839Z,3.2
2023-02-25T17:15:02.961Z,3.2
2023-02-25T17:20:02.215Z,3.0
2023-02-25T17:25:02.475Z,3.0
2023-02-25T17:30:02.780Z,2.9
2023-02-25T17:35:03.140Z,2.7
2023-02-25T17:40:02.437Z,2.7
2023-02-25T17:45:02.769Z,2.7
2023-02-25T17:50:03.056Z,2.5
2023-02-25T17:55:02.458Z,2.5
2023-02-25T18:00:02.711Z,2.0
2023-02-25T18:05:02.942Z,2.0
2023-02-25T18:10:02.173Z,1.8
2023-02-25T18:15:02.429Z,1.8
2023-02-25T18:20:02.640Z,1.7
2023-02-25T18:25:02.871Z,1.7
2023-02-25T18:30:03.268Z,1.3
2023-02-25T18:35:02.538Z,1.3
2023-02-25T18:40:02.828Z,1.2
2023-02-25T18:45:03.008Z,1.2
2023-02-25T18:50:02.220Z,1.2
2023-02-25T18:55:02.501Z,1.2
2023-02-25T19:00:02.821Z,1.2
2023-02-25T19:05:02.991Z,1.2
2023-02-25T19:10:02.241Z,1.1
2023-02-25T19:15:02.565Z,1.1
2023-02-25T19:20:02.860Z,1.2
2023-02-25T19:25:03.229Z,1.2
2023-02-25T19:30:02.439Z,1.1
2023-02-25T19:35:02.697Z,1.1
2023-02-25T19:40:02.941Z,0.6
2023-02-25T19:45:02.148Z,0.6
2023-02-25T19:50:02.477Z,1.1
2023-02-25T19:55:02.711Z,1.1
2023-02-25T20:00:03.084Z,1.2
2023-02-25T20:05:02.386Z,1.2
2023-02-25T20:10:02.635Z,1.3
2023-02-25T20:15:02.878Z,1.3
2023-02-25T20:20:03.097Z,1.1
2023-02-25T20:25:02.333Z,1.1
2023-02-25T20:30:02.677Z,0.8
2023-02-25T20:35:02.896Z,0.8
2023-02-25T20:40:03.155Z,0.8
2023-02-25T20:45:02.353Z,0.8
2023-02-25T20:50:02.630Z,0.7
2023-02-25T20:55:03.098Z,0.7
2023-02-25T21:00:02.466Z,0.6
2023-02-25T21:05:02.858Z,0.6
2023-02-25T21:10:03.173Z,0.6
2023-02-25T21:15:02.470Z,0.6
2023-02-25T21:20:02.838Z,0.7
2023-02-25T21:25:03.084Z,0.7
2023-02-25T21:30:02.253Z,0.8
2023-02-25T21:35:02.516Z,0.8
2023-02-25T21:40:02.743Z,0.7
2023-02-25T21:45:03.029Z,0.6
2023-02-25T21:50:02.335Z,0.4
2023-02-25T21:55:02.590Z,0.4
2023-02-25T22:00:02.763Z,0.1
2023-02-25T22:05:03.057Z,0.1
2023-02-25T22:10:02.253Z,0.0
2023-02-25T22:15:03.348Z,0.0
2023-02-25T22:20:02.497Z,0.0
2023-02-25T22:25:02.692Z,0.0
2023-02-25T22:30:02.999Z,-0.3
2023-02-25T22:35:02.206Z,-0.3
2023-02-25T22:40:02.392Z,-0.3
2023-02-25T22:45:02.632Z,-0.3
2023-02-25T22:50:02.748Z,-0.3
2023-02-25T22:55:03.053Z,-0.3
2023-02-25T23:00:02.373Z,0.1
2023-02-25T23:05:15.350Z,0.1
2023-02-25T23:10:08.482Z,0.1
2023-02-25T23:15:08.525Z,0.1
2023-02-25T23:20:08.605Z,0.1
2023-02-25T23:25:08.653Z,0.1
2023-02-25T23:30:08.723Z,0.1
2023-02-25T23:35:08.763Z,0.1
2023-02-25T23:40:08.824Z,0.3
2023-02-25T23:45:08.862Z,0.3
2023-02-25T23:50:08.964Z,0.3
2023-02-25T23:55:08.064Z,0.3
